Time;durP1;ratioP1;P1;durP2;ratioP2;P2;SDS_P1;SDS_P2;PMS_P1;PMS_P2;Temp;Humidity;BMP_temperature;BMP_pressure;BME280_temperature;BME280_humidity;BME280_pressure;Samples;Min_cycle;Max_cycle;Signal;HPM_P1;HPM_P2
2023/04/19 00:00:31;;;;;;;16.42;10.40;;;;;;;12.21;58.62;102872.84;5004791;28;20041;-40
2023/04/19 00:02:57;;;;;;;16.27;10.43;;;;;;;12.06;58.71;102870.56;5004219;28;20065;-40
2023/04/19 00:05:23;;;;;;;17.00;10.82;;;;;;;12.07;58.96;102874.06;5001271;28;20034;-46
2023/04/19 00:07:50;;;;;;;15.55;10.32;;;;;;;12.18;58.29;102873.63;5005391;28;20045;-42
2023/04/19 00:10:15;;;;;;;16.05;10.60;;;;;;;12.38;58.26;102876.13;5002519;28;20113;-44
2023/04/19 00:12:41;;;;;;;15.38;10.13;;;;;;;12.25;58.67;102879.09;5007772;28;20053;-41
2023/04/19 00:15:06;;;;;;;15.38;10.13;;;;;;;12.31;58.41;102864.53;5010220;28;20018;-41
2023/04/19 00:17:32;;;;;;;16.58;10.55;;;;;;;12.32;57.94;102868.91;5019157;28;20093;-43
2023/04/19 00:19:58;;;;;;;17.08;10.57;;;;;;;12.39;58.07;102867.41;5009661;28;20041;-40
2023/04/19 00:22:23;;;;;;;19.05;10.35;;;;;;;12.31;58.35;102867.16;5004437;28;20038;-43
2023/04/19 00:24:48;;;;;;;15.57;9.90;;;;;;;12.27;58.52;102867.84;5008274;28;20101;-41
2023/04/19 00:27:14;;;;;;;17.13;10.70;;;;;;;12.16;58.87;102872.69;5003851;28;20120;-40
2023/04/19 00:29:39;;;;;;;18.25;10.65;;;;;;;12.24;58.71;102859.91;5006537;28;20042;-40
2023/04/19 00:32:04;;;;;;;17.55;10.25;;;;;;;12.35;58.23;102865.53;5004046;28;20084;-42
2023/04/19 00:34:30;;;;;;;16.17;10.30;;;;;;;11.76;60.10;102864.13;5007362;28;20531;-43
2023/04/19 00:36:56;;;;;;;16.67;10.35;;;;;;;11.89;60.33;102868.09;5006638;28;20205;-40
2023/04/19 00:39:21;;;;;;;16.50;10.07;;;;;;;12.29;58.79;102863.59;5004241;28;20456;-40
2023/04/19 00:41:47;;;;;;;14.75;10.10;;;;;;;12.06;59.33;102861.81;5006922;28;20038;-40
2023/04/19 00:44:12;;;;;;;16.73;10.45;;;;;;;12.40;58.21;102864.88;5002908;28;20030;-41
2023/04/19 00:46:38;;;;;;;18.88;10.38;;;;;;;12.24;59.04;102862.53;5004351;28;20068;-38
2023/04/19 00:49:03;;;;;;;16.95;10.45;;;;;;;11.91;59.64;102855.97;4989190;28;20061;-41
2023/04/19 00:51:28;;;;;;;17.23;10.48;;;;;;;12.12;59.65;102855.09;5003143;28;20026;-43
2023/04/19 00:53:55;;;;;;;16.58;10.60;;;;;;;12.02;59.53;102857.28;5004931;28;20038;-41
2023/04/19 00:56:21;;;;;;;16.33;10.50;;;;;;;12.07;59.51;102853.16;5003497;28;20068;-40
2023/04/19 00:58:47;;;;;;;18.40;10.38;;;;;;;11.82;60.18;102855.63;5006772;28;20066;-40
2023/04/19 01:01:13;;;;;;;19.40;10.95;;;;;;;11.68;61.13;102860.25;5002454;28;20033;-42
2023/04/19 01:03:38;;;;;;;17.88;10.50;;;;;;;12.04;60.01;102866.97;5007044;28;20489;-39
2023/04/19 01:06:03;;;;;;;18.70;10.25;;;;;;;11.72;60.93;102843.84;5008315;28;20056;-42
2023/04/19 01:08:29;;;;;;;16.13;10.30;;;;;;;12.00;60.06;102851.13;5004211;28;20041;-40
2023/04/19 01:10:54;;;;;;;16.27;10.30;;;;;;;11.69;61.23;102851.59;5006953;28;20049;-42
2023/04/19 01:13:20;;;;;;;17.08;10.90;;;;;;;11.77;60.84;102847.59;5008399;22;20050;-46
2023/04/19 01:15:45;;;;;;;17.67;10.57;;;;;;;11.73;61.14;102849.19;4984191;28;20043;-44
2023/04/19 01:18:11;;;;;;;18.15;10.50;;;;;;;12.01;60.26;102848.56;4980493;28;20041;-45
2023/04/19 01:20:36;;;;;;;16.52;10.63;;;;;;;12.01;60.16;102848.56;4984300;28;20053;-47
2023/04/19 01:23:01;;;;;;;17.45;10.95;;;;;;;11.87;60.98;102852.34;4985142;28;20026;-45
2023/04/19 01:25:26;;;;;;;16.77;10.82;;;;;;;11.93;60.87;102843.88;4980956;28;20045;-44
2023/04/19 01:27:52;;;;;;;15.98;10.25;;;;;;;11.98;59.88;102839.69;4990941;28;20037;-43
2023/04/19 01:30:17;;;;;;;16.88;10.90;;;;;;;11.54;61.88;102832.66;5002135;28;20519;-44
2023/04/19 01:32:42;;;;;;;16.83;10.82;;;;;;;11.75;61.70;102842.31;5005968;28;20077;-44
2023/04/19 01:35:10;;;;;;;17.15;10.88;;;;;;;11.85;61.15;102848.78;5002282;28;20038;-43
2023/04/19 01:37:35;;;;;;;23.02;11.05;;;;;;;11.85;61.32;102840.03;4989081;28;20092;-45
2023/04/19 01:40:04;;;;;;;18.27;11.13;;;;;;;12.08;60.33;102833.97;5005726;28;20468;-48
2023/04/19 01:42:29;;;;;;;18.27;10.95;;;;;;;11.85;61.50;102840.03;5002069;28;20029;-44
2023/04/19 01:44:54;;;;;;;19.48;10.88;;;;;;;11.59;61.74;102838.97;5004603;28;20567;-45
2023/04/19 01:47:20;;;;;;;16.85;11.15;;;;;;;11.83;61.83;102831.28;4998677;28;20034;-47
2023/04/19 01:49:45;;;;;;;17.88;11.32;;;;;;;12.01;60.91;102845.06;5001980;28;20635;-44
2023/04/19 01:52:11;;;;;;;16.42;10.75;;;;;;;11.68;61.86;102836.75;4998325;28;20033;-45
2023/04/19 01:54:36;;;;;;;17.23;11.40;;;;;;;11.81;62.14;102831.22;5001720;28;20030;-43
2023/04/19 01:57:01;;;;;;;17.10;11.10;;;;;;;11.87;61.66;102836.69;5002396;28;20091;-46
2023/04/19 01:59:27;;;;;;;18.15;11.20;;;;;;;11.95;61.51;102829.13;4981112;28;20036;-43
2023/04/19 02:01:52;;;;;;;20.05;12.10;;;;;;;11.78;62.08;102834.59;5002127;28;20080;-46
2023/04/19 02:04:19;;;;;;;17.58;11.68;;;;;;;11.80;61.68;102834.66;4998780;28;20527;-43
2023/04/19 02:06:45;;;;;;;17.27;11.13;;;;;;;11.41;63.26;102828.66;5002045;28;20026;-44
2023/04/19 02:09:10;;;;;;;17.83;11.13;;;;;;;11.45;63.88;102832.31;4997476;28;20030;-41
2023/04/19 02:11:35;;;;;;;19.63;11.68;;;;;;;11.54;63.68;102830.94;5002429;28;20791;-41
2023/04/19 02:14:01;;;;;;;18.55;11.43;;;;;;;11.54;63.17;102830.06;5001191;28;20042;-44
2023/04/19 02:16:26;;;;;;;19.08;11.60;;;;;;;11.55;63.14;102824.00;4998248;28;20045;-44
2023/04/19 02:18:52;;;;;;;21.15;11.70;;;;;;;11.82;62.62;102826.88;4983442;28;20041;-42
2023/04/19 02:21:17;;;;;;;19.42;12.23;;;;;;;11.54;63.28;102827.44;4997968;28;20087;-44
2023/04/19 02:23:42;;;;;;;20.17;11.35;;;;;;;11.37;63.87;102822.44;5001561;28;20045;-46
2023/04/19 02:26:08;;;;;;;18.60;12.30;;;;;;;11.35;64.28;102815.34;4998118;28;20055;-44
2023/04/19 02:28:33;;;;;;;18.67;12.40;;;;;;;11.65;63.17;102826.16;5002175;28;20061;-44
2023/04/19 02:31:03;;;;;;;18.20;11.65;;;;;;;11.73;62.86;102825.66;5001694;28;20451;-44
2023/04/19 02:33:29;;;;;;;19.10;11.77;;;;;;;11.75;63.17;102816.19;4997930;28;20042;-43
2023/04/19 02:35:54;;;;;;;20.15;11.43;;;;;;;12.05;62.12;102826.03;5001707;28;20045;-44
2023/04/19 02:38:19;;;;;;;18.85;11.80;;;;;;;12.03;62.32;102836.44;5003202;28;20038;-42
2023/04/19 02:40:45;;;;;;;19.88;12.02;;;;;;;12.01;62.45;102834.59;5008017;28;20034;-44
2023/04/19 02:43:10;;;;;;;19.05;12.38;;;;;;;11.73;62.95;102830.91;5001890;28;20515;-45
2023/04/19 02:45:36;;;;;;;19.27;12.35;;;;;;;11.95;62.82;102835.25;5006588;28;20062;-43
2023/04/19 02:48:01;;;;;;;19.70;12.60;;;;;;;11.88;62.81;102822.78;5007204;28;20120;-43
2023/04/19 02:50:26;;;;;;;22.00;12.85;;;;;;;12.28;61.82;102832.13;5003584;28;20038;-45
2023/04/19 02:52:52;;;;;;;20.88;12.48;;;;;;;12.25;62.40;102837.25;5001854;28;20030;-44
2023/04/19 02:55:17;;;;;;;20.48;11.90;;;;;;;11.88;63.44;102835.84;4997986;28;20044;-41
2023/04/19 02:57:43;;;;;;;19.95;12.25;;;;;;;12.05;63.21;102826.03;5001469;28;20038;-45
2023/04/19 03:00:09;;;;;;;19.83;12.40;;;;;;;12.15;62.37;102825.53;5001081;28;20116;-46
2023/04/19 03:02:35;;;;;;;19.33;12.40;;;;;;;12.25;62.28;102826.81;5005560;28;20026;-45
2023/04/19 03:05:00;;;;;;;20.20;12.60;;;;;;;12.08;62.52;102827.03;5005162;28;20515;-44
2023/04/19 03:07:26;;;;;;;20.02;13.18;;;;;;;12.56;61.74;102833.19;5002235;28;20038;-44
2023/04/19 03:09:51;;;;;;;20.75;12.88;;;;;;;12.26;62.43;102834.69;5005567;28;20080;-48
2023/04/19 03:12:16;;;;;;;24.13;13.02;;;;;;;12.38;61.90;102835.13;5001301;28;20038;-44
2023/04/19 03:14:42;;;;;;;20.15;12.75;;;;;;;12.17;62.50;102830.00;5004552;28;20054;-47
2023/04/19 03:17:07;;;;;;;20.15;12.73;;;;;;;12.59;61.67;102835.03;5000951;28;20049;-46
2023/04/19 03:19:32;;;;;;;19.90;12.65;;;;;;;12.82;60.78;102839.38;5005719;28;20037;-43
2023/04/19 03:21:58;;;;;;;20.08;12.38;;;;;;;12.56;61.86;102838.44;5004804;28;20044;-46
2023/04/19 03:24:28;;;;;;;19.88;12.55;;;;;;;12.54;62.06;102826.16;5002110;28;20057;-43
2023/04/19 03:26:54;;;;;;;20.13;12.73;;;;;;;12.52;62.27;102822.56;5005707;28;20041;-43
2023/04/19 03:29:19;;;;;;;21.08;13.35;;;;;;;12.34;62.80;102825.41;5001332;28;20038;-44
2023/04/19 03:31:45;;;;;;;24.15;12.77;;;;;;;12.33;62.83;102823.63;5005270;28;20084;-45
2023/04/19 03:34:10;;;;;;;25.52;13.43;;;;;;;12.35;62.71;102827.19;5000900;28;20528;-43
2023/04/19 03:36:35;;;;;;;23.15;13.52;;;;;;;12.31;62.97;102820.06;5005206;28;20054;-43
2023/04/19 03:39:02;;;;;;;21.48;13.20;;;;;;;12.78;61.82;102815.66;5004326;28;20041;-46
2023/04/19 03:41:27;;;;;;;21.27;12.68;;;;;;;12.55;62.37;102817.47;5001880;28;20036;-45
2023/04/19 03:43:53;;;;;;;20.85;13.57;;;;;;;12.52;62.48;102814.72;5009490;28;20117;-45
2023/04/19 03:46:18;;;;;;;19.88;12.98;;;;;;;12.65;62.43;102818.66;5005239;28;20030;-45
2023/04/19 03:48:43;;;;;;;21.65;13.57;;;;;;;12.69;62.10;102810.97;5004897;28;20125;-45
2023/04/19 03:51:09;;;;;;;20.05;12.77;;;;;;;12.47;62.49;102822.41;5001435;28;20716;-43
2023/04/19 03:53:35;;;;;;;22.15;13.27;;;;;;;12.60;62.30;102818.53;5005349;28;20061;-43
2023/04/19 03:56:00;;;;;;;20.65;13.00;;;;;;;12.81;61.71;102816.66;5004923;28;20038;-42
2023/04/19 03:58:25;;;;;;;23.02;13.55;;;;;;;12.58;62.47;102820.19;5000855;28;20045;-44
2023/04/19 04:00:52;;;;;;;22.42;13.13;;;;;;;13.00;60.99;102818.16;5005112;28;20041;-44
2023/04/19 04:03:17;;;;;;;20.42;12.57;;;;;;;12.90;61.49;102814.38;5000577;28;20031;-46
2023/04/19 04:05:43;;;;;;;20.40;12.75;;;;;;;12.70;62.14;102820.63;5003591;28;20037;-46
2023/04/19 04:08:08;;;;;;;20.08;12.68;;;;;;;12.62;62.25;102811.63;5001264;28;20034;-47
2023/04/19 04:10:34;;;;;;;21.00;13.27;;;;;;;12.86;61.64;102816.84;5004550;28;20432;-43
2023/04/19 04:12:59;;;;;;;21.35;13.00;;;;;;;12.90;61.61;102816.09;5004069;28;20541;-43
2023/04/19 04:15:24;;;;;;;21.80;13.13;;;;;;;13.07;60.85;102822.78;5000422;28;20150;-45
2023/04/19 04:17:50;;;;;;;20.08;12.70;;;;;;;13.01;61.23;102819.97;5003445;28;20069;-44
2023/04/19 04:20:15;;;;;;;20.15;12.73;;;;;;;13.03;61.16;102818.28;4982109;28;20420;-44
2023/04/19 04:22:47;;;;;;;20.48;12.98;;;;;;;12.70;62.03;102827.56;5003207;28;20495;-45
2023/04/19 04:25:15;;;;;;;20.85;12.85;;;;;;;12.79;61.84;102833.16;4999433;28;20040;-44
2023/04/19 04:27:42;;;;;;;20.13;12.75;;;;;;;12.81;61.83;102837.59;5004236;28;20058;-44
2023/04/19 04:30:09;;;;;;;20.38;12.55;;;;;;;12.74;61.77;102833.00;5000432;28;20029;-45
2023/04/19 04:32:34;;;;;;;19.85;12.25;;;;;;;13.23;60.58;102832.09;5004695;28;20041;-42
2023/04/19 04:35:03;;;;;;;21.85;12.95;;;;;;;13.23;60.58;102840.84;5003409;28;20033;-47
2023/04/19 04:37:32;;;;;;;20.27;12.15;;;;;;;13.34;60.37;102835.97;4999504;28;20061;-50
2023/04/19 04:39:58;;;;;;;18.63;11.88;;;;;;;13.26;60.46;102834.81;5003012;28;20041;-44
2023/04/19 04:42:24;;;;;;;20.10;12.48;;;;;;;13.25;60.59;102831.31;4981825;28;20046;-43
2023/04/19 04:44:49;;;;;;;18.70;12.13;;;;;;;12.93;60.81;102829.25;5003062;28;20054;-43
2023/04/19 04:47:15;;;;;;;21.65;12.82;;;;;;;13.25;60.28;102836.53;4999333;28;20042;-42
2023/04/19 04:49:40;;;;;;;20.98;12.48;;;;;;;12.96;61.25;102839.88;5002722;28;20030;-45
2023/04/19 04:52:07;;;;;;;18.80;11.93;;;;;;;13.36;60.08;102836.88;5000698;28;20029;-49
2023/04/19 04:54:32;;;;;;;18.77;11.75;;;;;;;13.36;60.09;102837.78;5002801;28;20034;-46
2023/04/19 04:56:58;;;;;;;19.98;12.50;;;;;;;12.96;61.39;102840.75;5002812;28;20034;-43
2023/04/19 04:59:23;;;;;;;20.10;12.23;;;;;;;12.90;61.21;102839.66;4981468;28;20052;-43
2023/04/19 05:01:48;;;;;;;20.35;12.18;;;;;;;12.73;61.73;102841.69;4985421;28;20112;-44
2023/04/19 05:04:14;;;;;;;19.58;11.98;;;;;;;13.09;60.50;102841.19;4998802;28;20562;-46
2023/04/19 05:06:40;;;;;;;18.45;11.35;;;;;;;13.02;60.66;102840.06;5002574;28;20113;-44
2023/04/19 05:09:06;;;;;;;19.42;12.25;;;;;;;12.98;60.69;102838.19;5000580;28;20034;-53
2023/04/19 05:11:31;;;;;;;17.83;11.85;;;;;;;13.33;60.11;102842.03;5002430;28;20492;-45
2023/04/19 05:13:57;;;;;;;21.83;12.00;;;;;;;13.47;59.20;102832.91;5003100;28;20082;-42
2023/04/19 05:16:22;;;;;;;62.95;43.72;;;;;;;13.17;60.36;102839.75;4999409;28;20041;-44
2023/04/19 05:18:48;;;;;;;23.48;15.45;;;;;;;13.33;59.63;102837.69;5002950;28;20041;-48
2023/04/19 05:21:13;;;;;;;17.17;11.40;;;;;;;13.34;59.29;102844.72;4998802;28;20034;-45
2023/04/19 05:23:38;;;;;;;19.23;11.90;;;;;;;12.87;60.51;102834.28;5002643;28;20464;-41
2023/04/19 05:26:04;;;;;;;17.80;11.25;;;;;;;12.88;60.37;102841.31;4985690;28;20480;-42
2023/04/19 05:28:29;;;;;;;16.77;11.40;;;;;;;12.96;59.66;102837.25;4999467;28;20180;-43
2023/04/19 05:30:55;;;;;;;18.40;11.80;;;;;;;13.11;59.29;102848.25;5003585;28;20080;-45
2023/04/19 05:33:20;;;;;;;16.33;11.30;;;;;;;13.35;58.92;102853.47;5000935;28;20129;-43
2023/04/19 05:35:45;;;;;;;18.95;11.60;;;;;;;13.16;59.44;102851.06;5002283;28;20317;-45
2023/04/19 05:38:10;;;;;;;19.90;12.05;;;;;;;13.38;58.63;102853.56;4998579;28;20070;-44
2023/04/19 05:40:36;;;;;;;17.88;12.15;;;;;;;13.62;57.71;102854.38;5002189;28;20402;-43
2023/04/19 05:43:01;;;;;;;16.75;10.88;;;;;;;13.32;57.95;102855.97;4984428;28;20580;-44
2023/04/19 05:45:26;;;;;;;17.90;11.65;;;;;;;13.67;57.23;102857.13;4998594;28;20036;-42
2023/04/19 05:47:52;;;;;;;18.40;11.52;;;;;;;13.69;57.11;102864.22;5002667;28;20037;-45
2023/04/19 05:50:19;;;;;;;20.15;11.85;;;;;;;13.39;57.86;102857.97;4999374;28;20034;-46
2023/04/19 05:52:45;;;;;;;19.88;11.73;;;;;;;13.42;56.88;102860.66;5003038;28;20434;-43
2023/04/19 05:55:10;;;;;;;18.58;11.23;;;;;;;13.43;57.30;102861.56;5000751;28;20033;-43
2023/04/19 05:57:35;;;;;;;17.13;11.02;;;;;;;13.39;57.20;102864.09;5006146;28;20412;-48
2023/04/19 06:00:01;;;;;;;17.98;11.25;;;;;;;13.42;57.04;102865.91;5004807;28;20612;-44
2023/04/19 06:02:26;;;;;;;16.70;11.15;;;;;;;13.30;57.46;102861.16;5001169;28;20046;-43
2023/04/19 06:04:52;;;;;;;17.92;10.77;;;;;;;12.94;58.12;102870.31;5003679;28;20068;-47
2023/04/19 06:07:17;;;;;;;18.90;11.43;;;;;;;13.34;56.94;102865.69;4998513;28;20570;-44
2023/04/19 06:09:42;;;;;;;19.55;10.82;;;;;;;12.99;57.33;102877.50;5001632;28;20030;-45
2023/04/19 06:12:08;;;;;;;18.33;11.40;;;;;;;13.48;56.51;102873.13;4998390;28;20030;-47
2023/04/19 06:14:34;;;;;;;20.30;11.07;;;;;;;13.57;56.40;102868.16;5002159;28;20034;-42
2023/04/19 06:16:59;;;;;;;16.77;11.30;;;;;;;13.87;55.49;102878.75;5002015;28;20121;-43
2023/04/19 06:19:24;;;;;;;16.63;10.48;;;;;;;14.44;54.25;102875.31;4997775;28;20133;-48
2023/04/19 06:21:49;;;;;;;16.92;10.38;;;;;;;15.10;51.78;102867.53;5001386;28;20033;-45
2023/04/19 06:24:15;;;;;;;16.10;9.95;;;;;;;16.11;49.24;102865.63;4998334;28;20033;-47
2023/04/19 06:26:40;;;;;;;16.10;9.88;;;;;;;17.23;45.79;102869.69;5001744;28;20404;-41
2023/04/19 06:29:05;;;;;;;16.42;9.65;;;;;;;17.62;44.09;102866.88;5002783;28;20030;-47
2023/04/19 06:31:32;;;;;;;14.05;9.38;;;;;;;18.73;41.55;102871.06;5006937;28;20045;-44
2023/04/19 06:33:57;;;;;;;17.23;8.68;;;;;;;19.41;39.51;102858.53;5006659;28;20460;-47
2023/04/19 06:36:22;;;;;;;13.57;9.30;;;;;;;19.44;38.00;102861.22;5004734;28;20044;-43
2023/04/19 06:38:48;;;;;;;12.40;8.52;;;;;;;18.15;39.27;102857.13;5011609;28;20048;-44
2023/04/19 06:41:14;;;;;;;13.43;9.07;;;;;;;18.73;38.44;102863.13;5007556;28;20117;-46
2023/04/19 06:43:41;;;;;;;12.35;8.40;;;;;;;18.38;38.67;102860.03;5006128;28;20034;-43
2023/04/19 06:46:07;;;;;;;14.52;8.90;;;;;;;18.95;38.06;102858.13;5002072;28;20030;-44
2023/04/19 06:48:33;;;;;;;11.90;8.48;;;;;;;19.55;37.58;102870.16;5005078;28;20036;-44
2023/04/19 06:50:58;;;;;;;14.80;9.02;;;;;;;19.37;37.05;102862.03;5005450;28;20080;-41
2023/04/19 06:53:25;;;;;;;16.90;8.77;;;;;;;19.40;36.44;102864.69;4984378;28;20030;-45
2023/04/19 06:55:59;;;;;;;11.73;8.40;;;;;;;18.77;36.66;102873.78;5005259;28;20048;-44
2023/04/19 06:58:25;;;;;;;13.43;9.02;;;;;;;18.77;36.92;102873.78;5001435;28;20046;-49
2023/04/19 07:00:51;;;;;;;11.85;8.10;;;;;;;19.78;35.70;102872.97;5005264;28;20026;-45
2023/04/19 07:03:16;;;;;;;12.00;8.77;;;;;;;20.09;34.15;102874.94;5001833;28;20092;-45
2023/04/19 07:05:41;;;;;;;11.88;8.55;;;;;;;20.41;33.50;102866.31;5005030;28;20045;-45
2023/04/19 07:08:06;;;;;;;12.80;8.27;;;;;;;20.22;34.17;102863.53;4983744;28;20064;-51
2023/04/19 07:10:32;;;;;;;14.13;7.72;;;;;;;20.47;33.45;102859.28;5006352;28;20068;-45
2023/04/19 07:15:26;;;;;;;12.88;7.97;;;;;;;20.84;32.29;102856.75;5023434;22;20484;-38
2023/04/19 07:17:51;;;;;;;11.07;8.07;;;;;;;20.74;32.91;102855.81;4988789;28;20038;-40
2023/04/19 07:20:17;;;;;;;11.50;8.25;;;;;;;19.85;33.88;102854.50;4965113;28;20124;-39
2023/04/19 07:22:42;;;;;;;12.00;8.05;;;;;;;19.96;33.64;102859.84;4969299;28;20041;-42
2023/04/19 07:25:08;;;;;;;12.82;8.02;;;;;;;20.77;32.44;102852.31;4964913;28;20027;-43
2023/04/19 07:27:33;;;;;;;12.75;8.02;;;;;;;21.11;32.39;102861.19;4969643;28;20053;-41
2023/04/19 07:29:59;;;;;;;11.85;8.00;;;;;;;21.37;31.12;102862.16;4969630;28;20113;-38
2023/04/19 07:32:24;;;;;;;14.15;8.80;;;;;;;21.27;31.09;102858.63;4967047;28;22776;-39
2023/04/19 07:34:50;;;;;;;12.45;8.00;;;;;;;21.26;31.45;102859.50;4967758;28;20046;-39
2023/04/19 07:37:16;;;;;;;12.25;7.65;;;;;;;22.19;30.40;102851.44;4964690;28;20547;-38
2023/04/19 07:39:41;;;;;;;10.73;7.82;;;;;;;22.36;29.41;102854.03;4969750;28;20090;-40
2023/04/19 07:42:06;;;;;;;11.18;7.90;;;;;;;22.41;29.25;102845.13;4965529;28;20497;-40
2023/04/19 07:44:32;;;;;;;10.68;7.88;;;;;;;22.11;29.43;102843.50;4966989;28;20031;-37
2023/04/19 07:46:57;;;;;;;11.82;7.78;;;;;;;21.72;30.09;102846.19;4968187;28;20030;-39
2023/04/19 07:49:23;;;;;;;11.40;7.25;;;;;;;21.57;29.35;102843.56;4964957;28;20031;-41
2023/04/19 07:51:48;;;;;;;14.27;7.82;;;;;;;21.66;29.25;102844.44;4969047;28;20031;-40
2023/04/19 07:54:15;;;;;;;9.90;7.18;;;;;;;21.48;28.92;102833.84;4946681;28;20042;-39
2023/04/19 07:56:40;;;;;;;12.55;7.18;;;;;;;21.35;29.81;102847.97;4967976;28;20046;-37
2023/04/19 07:59:06;;;;;;;10.77;7.43;;;;;;;20.81;30.10;102843.47;4964593;28;20441;-39
2023/04/19 08:01:31;;;;;;;12.85;7.32;;;;;;;19.41;32.39;102848.84;4967647;28;20553;-39
2023/04/19 08:03:56;;;;;;;10.82;7.43;;;;;;;18.38;34.03;102845.09;4950143;28;20050;-39
2023/04/19 08:06:22;;;;;;;12.27;7.75;;;;;;;18.04;34.93;102851.69;4965845;28;20038;-39
2023/04/19 08:08:47;;;;;;;12.75;7.65;;;;;;;16.77;36.40;102849.53;4970766;28;20062;-37
2023/04/19 08:11:13;;;;;;;14.02;7.97;;;;;;;16.34;37.45;102840.72;4968451;28;20034;-39
2023/04/19 08:13:38;;;;;;;11.85;7.55;;;;;;;16.16;38.26;102848.25;4969755;28;20088;-39
2023/04/19 08:16:04;;;;;;;12.63;7.85;;;;;;;16.04;38.35;102846.19;4971101;28;20045;-38
2023/04/19 08:18:30;;;;;;;13.38;7.95;;;;;;;16.11;38.61;102844.59;4966598;28;20508;-39
2023/04/19 08:20:55;;;;;;;12.73;7.80;;;;;;;16.37;38.94;102847.78;4971382;28;20031;-36
2023/04/19 08:23:21;;;;;;;12.50;7.75;;;;;;;16.39;38.90;102844.34;4950103;28;20031;-40
2023/04/19 08:25:46;;;;;;;14.68;7.82;;;;;;;15.71;39.79;102842.81;4970064;28;20035;-39
2023/04/19 08:28:12;;;;;;;14.23;7.50;;;;;;;15.93;38.50;102839.81;4966677;28;20051;-39
2023/04/19 08:30:37;;;;;;;10.48;7.35;;;;;;;15.95;39.45;102829.34;4969282;28;20035;-39
2023/04/19 08:33:03;;;;;;;12.18;7.18;;;;;;;15.90;39.22;102837.13;4969572;28;20090;-44
2023/04/19 08:35:28;;;;;;;11.23;7.10;;;;;;;16.30;38.63;102843.25;4965828;28;20501;-39
2023/04/19 08:37:54;;;;;;;11.13;6.60;;;;;;;15.86;37.82;102844.91;4970480;28;20041;-38
2023/04/19 08:40:19;;;;;;;12.50;6.78;;;;;;;16.11;37.89;102841.97;4965225;28;20146;-38
2023/04/19 08:42:44;;;;;;;10.70;6.75;;;;;;;16.60;37.55;102847.44;4951782;28;20047;-39
2023/04/19 08:45:12;;;;;;;9.77;6.60;;;;;;;16.37;37.40;102846.03;4965001;28;20421;-38
2023/04/19 08:47:39;;;;;;;11.95;6.38;;;;;;;16.43;36.57;102843.53;4968019;28;20034;-42
2023/04/19 08:50:06;;;;;;;10.02;6.13;;;;;;;16.26;37.08;102844.94;4968959;28;20066;-39
2023/04/19 08:52:36;;;;;;;9.65;5.60;;;;;;;16.17;35.79;102842.97;4965573;28;20150;-39
2023/04/19 08:55:07;;;;;;;9.15;5.40;;;;;;;16.11;35.14;102840.22;4969708;28;20066;-38
2023/04/19 08:57:34;;;;;;;8.43;4.97;;;;;;;16.29;35.01;102844.09;4966245;28;20035;-43
2023/04/19 09:00:00;;;;;;;10.73;4.88;;;;;;;16.77;34.70;102834.56;4970168;28;20034;-39
2023/04/19 09:02:25;;;;;;;10.68;5.05;;;;;;;16.70;35.45;102839.72;4965704;28;20167;-39
2023/04/19 09:04:51;;;;;;;11.32;5.50;;;;;;;16.12;34.45;102833.22;4952195;28;20517;-41
2023/04/19 09:07:27;;;;;;;7.50;5.15;;;;;;;16.89;33.93;102840.13;4964013;28;20563;-41
2023/04/19 09:10:12;;;;;;;9.07;5.20;;;;;;;16.90;34.05;102833.97;4967747;28;20039;-39
2023/04/19 09:12:38;;;;;;;11.70;4.80;;;;;;;16.47;34.28;102833.94;4962108;28;20030;-41
2023/04/19 09:15:07;;;;;;;7.82;4.70;;;;;;;16.36;34.85;102830.22;4966440;28;20050;-41
2023/04/19 09:17:33;;;;;;;12.30;4.63;;;;;;;16.02;34.02;102828.63;4964173;28;20058;-39
2023/04/19 09:19:59;;;;;;;11.93;4.60;;;;;;;16.73;34.18;102834.50;4966120;28;20027;-38
2023/04/19 09:22:24;;;;;;;7.55;4.32;;;;;;;16.87;33.93;102836.53;4959487;28;20037;-38
2023/04/19 09:24:51;;;;;;;9.57;4.80;;;;;;;16.97;32.84;102832.31;4966627;28;20393;-39
2023/04/19 09:27:25;;;;;;;8.75;4.70;;;;;;;16.57;33.02;102825.41;4963632;28;20031;-42
2023/04/19 09:29:55;;;;;;;8.73;4.80;;;;;;;16.55;33.04;102828.00;4964918;28;20046;-37
2023/04/19 09:32:21;;;;;;;8.90;4.80;;;;;;;16.63;32.93;102828.19;4959454;28;20063;-39
2023/04/19 09:34:52;;;;;;;9.68;4.50;;;;;;;16.93;32.37;102820.84;4963004;28;20039;-37
2023/04/19 09:37:17;;;;;;;9.30;4.63;;;;;;;17.22;31.96;102815.19;4959637;28;20200;-40
2023/04/19 09:39:43;;;;;;;8.70;4.60;;;;;;;17.13;31.66;102813.31;4963141;28;20513;-36
2023/04/19 09:42:08;;;;;;;11.63;4.25;;;;;;;16.64;30.54;102816.78;4959898;28;20031;-39
2023/04/19 09:44:34;;;;;;;11.20;4.28;;;;;;;16.95;30.02;102811.25;4963658;28;20042;-39
2023/04/19 09:47:00;;;;;;;7.85;4.28;;;;;;;17.00;31.15;102806.94;4962683;28;20035;-41
2023/04/19 09:49:26;;;;;;;10.93;4.45;;;;;;;16.80;31.04;102813.59;4949637;28;20493;-39
2023/04/19 09:51:56;;;;;;;7.47;3.90;;;;;;;16.46;30.73;102813.75;4961998;28;20531;-36
2023/04/19 09:54:22;;;;;;;7.28;3.83;;;;;;;16.68;30.60;102809.81;4960073;28;20046;-35
2023/04/19 09:56:49;;;;;;;7.07;4.10;;;;;;;16.90;30.25;102801.44;4963107;28;20038;-41
2023/04/19 09:59:15;;;;;;;7.25;3.85;;;;;;;16.62;29.60;102807.97;4958966;28;20031;-40
2023/04/19 10:01:55;;;;;;;11.02;3.65;;;;;;;16.79;29.37;102800.38;4963568;28;20035;-40
2023/04/19 10:04:21;;;;;;;5.00;3.40;;;;;;;16.43;29.74;102811.06;4958864;28;20118;-42
2023/04/19 10:06:53;;;;;;;6.10;3.30;;;;;;;16.59;29.80;102800.88;4963431;28;20122;-41
2023/04/19 10:09:20;;;;;;;5.18;2.90;;;;;;;16.57;29.14;102805.22;4958327;28;20042;-41
2023/04/19 10:11:53;;;;;;;8.13;3.40;;;;;;;16.42;29.34;102806.66;4965885;28;20081;-38
2023/04/19 10:14:26;;;;;;;5.70;3.10;;;;;;;16.46;29.52;102804.13;4961475;28;20043;-39
2023/04/19 10:16:52;;;;;;;6.30;3.30;;;;;;;16.75;29.46;102801.19;4946910;28;20421;-36
2023/04/19 10:19:19;;;;;;;6.18;3.15;;;;;;;16.72;29.38;102801.13;4959501;28;20300;-40
2023/04/19 10:21:47;;;;;;;9.35;3.20;;;;;;;16.57;30.01;102804.31;4948830;28;20035;-41
2023/04/19 10:24:14;;;;;;;5.03;3.30;;;;;;;16.58;30.53;102809.63;4963880;28;20409;-39
2023/04/19 10:27:01;;;;;;;6.57;3.20;;;;;;;16.62;30.04;102793.06;4965753;28;20121;-39
2023/04/19 10:29:54;;;;;;;3.65;2.65;;;;;;;16.81;29.41;102799.56;4964005;28;20429;-38
2023/04/19 10:32:21;;;;;;;3.88;2.60;;;;;;;16.85;29.60;102801.38;4946489;28;20066;-39
2023/04/19 10:34:46;;;;;;;6.00;2.67;;;;;;;16.40;28.78;102795.22;4967423;28;20035;-39
2023/04/19 10:37:15;;;;;;;5.43;2.30;;;;;;;16.93;28.96;102802.41;4964239;28;20234;-38
2023/04/19 10:39:42;;;;;;;5.00;2.67;;;;;;;16.92;28.75;102795.38;4967305;28;20046;-38
2023/04/19 10:42:08;;;;;;;9.10;2.70;;;;;;;17.19;28.08;102794.06;4946899;28;20031;-40
2023/04/19 10:44:33;;;;;;;6.20;2.47;;;;;;;16.86;28.27;102792.63;4968129;28;20624;-38
2023/04/19 10:46:59;;;;;;;6.35;2.33;;;;;;;17.08;28.83;102783.31;4967034;28;20046;-39
2023/04/19 10:49:26;;;;;;;3.95;2.45;;;;;;;16.55;27.63;102784.97;4963256;28;20457;-38
2023/04/19 10:51:53;;;;;;;6.05;2.40;;;;;;;17.26;27.50;102791.53;4966443;28;20408;-41
2023/04/19 10:54:30;;;;;;;5.47;2.55;;;;;;;16.87;27.89;102777.69;4962850;28;20031;-39
2023/04/19 10:56:59;;;;;;;4.82;2.35;;;;;;;16.92;26.92;102784.81;4966512;28;20035;-39
2023/04/19 10:59:25;;;;;;;3.22;2.40;;;;;;;16.62;27.68;102782.53;4943317;28;20446;-39
2023/04/19 11:01:56;;;;;;;3.95;2.55;;;;;;;16.74;28.32;102775.69;4965266;28;20456;-41
2023/04/19 11:04:30;;;;;;;4.50;2.63;;;;;;;16.97;28.55;102780.50;4961408;28;20408;-41
2023/04/19 11:07:00;;;;;;;5.95;2.70;;;;;;;17.03;28.22;102770.06;4965137;28;20412;-41
2023/04/19 11:09:33;;;;;;;3.92;2.80;;;;;;;17.31;28.10;102768.81;4960257;28;20034;-39
2023/04/19 11:12:19;;;;;;;4.80;3.00;;;;;;;17.69;28.41;102785.22;4946377;28;20501;-39